Time;durP1;ratioP1;P1;durP2;ratioP2;P2;SDS_P1;SDS_P2;PMS_P1;PMS_P2;Temp;Humidity;BMP_temperature;BMP_pressure;BME280_temperature;BME280_humidity;BME280_pressure;Samples;Min_cycle;Max_cycle;Signal;HPM_P1;HPM_P2
2022/06/21 00:02:26;;;;;;;10.40;2.05;;;41.20;11.90;;;;;;4990015;28;20026;-66
2022/06/21 00:04:53;;;;;;;7.93;2.13;;;41.10;11.90;;;;;;4971223;28;20026;-63
2022/06/21 00:07:26;;;;;;;12.05;2.22;;;41.10;11.70;;;;;;4990250;28;20507;-64
2022/06/21 00:09:53;;;;;;;10.98;2.85;;;40.90;11.40;;;;;;4990772;28;20554;-64
2022/06/21 00:12:21;;;;;;;16.08;2.38;;;40.80;11.50;;;;;;4986312;28;20030;-64
2022/06/21 00:14:48;;;;;;;7.20;2.10;;;40.70;12.20;;;;;;4990243;28;20109;-64
2022/06/21 00:17:18;;;;;;;7.32;2.30;;;40.60;12.30;;;;;;4989277;28;20026;-64
2022/06/21 00:19:45;;;;;;;6.00;1.90;;;40.60;12.40;;;;;;4992619;28;20026;-64
2022/06/21 00:22:19;;;;;;;8.02;2.17;;;40.60;12.10;;;;;;4989596;28;20038;-64
2022/06/21 00:24:46;;;;;;;11.40;2.05;;;40.60;12.40;;;;;;4990247;28;20026;-64
2022/06/21 00:27:19;;;;;;;8.88;1.70;;;40.50;12.30;;;;;;4992794;28;20049;-63
2022/06/21 00:29:45;;;;;;;9.13;2.15;;;40.40;12.80;;;;;;4992039;28;20093;-63
2022/06/21 00:32:17;;;;;;;15.05;2.45;;;40.30;11.50;;;;;;4991265;28;20026;-65
2022/06/21 00:34:45;;;;;;;11.90;2.30;;;40.20;12.00;;;;;;5005805;28;20848;-63
2022/06/21 00:37:21;;;;;;;4.38;2.33;;;40.10;13.20;;;;;;4992271;28;20030;-67
2022/06/21 00:39:48;;;;;;;;;;;39.90;12.30;;;;;;5009206;28;20026;-64
2022/06/21 00:42:25;;;;;;;9.18;2.40;;;39.90;12.40;;;;;;4990495;28;19910;-64
2022/06/21 00:45:01;;;;;;;5.85;2.10;;;39.80;12.70;;;;;;5004813;28;20026;-64
2022/06/21 00:47:44;;;;;;;8.70;1.83;;;39.60;12.10;;;;;;4992981;28;20030;-65
2022/06/21 00:50:20;;;;;;;11.95;2.65;;;39.70;13.00;;;;;;4991768;28;20026;-65
2022/06/21 00:52:54;;;;;;;15.00;2.65;;;39.60;12.50;;;;;;4990765;28;20057;-66
2022/06/21 00:55:42;;;;;;;10.82;2.30;;;39.70;12.50;;;;;;4990261;28;20030;-64
2022/06/21 00:58:11;;;;;;;12.75;2.22;;;39.60;12.70;;;;;;4991663;28;20366;-65
2022/06/21 01:01:00;;;;;;;8.23;1.95;;;39.60;12.60;;;;;;4990445;28;20034;-65
2022/06/21 01:03:41;;;;;;;9.40;2.13;;;39.50;12.90;;;;;;4992312;28;20160;-64
2022/06/21 01:06:18;;;;;;;11.30;2.55;;;39.50;13.60;;;;;;5007057;28;20054;-64
2022/06/21 01:08:59;;;;;;;9.63;2.47;;;39.30;13.90;;;;;;4989732;28;20357;-64
2022/06/21 01:11:38;;;;;;;13.85;2.33;;;39.10;13.30;;;;;;4990491;28;20033;-67
2022/06/21 01:14:05;;;;;;;12.00;2.20;;;39.10;13.40;;;;;;4989857;28;20034;-65
2022/06/21 01:16:33;;;;;;;18.73;2.60;;;39.00;12.90;;;;;;4991846;28;20026;-59
2022/06/21 01:19:01;;;;;;;9.85;2.22;;;39.00;16.80;;;;;;4997635;28;20030;-64
2022/06/21 01:21:29;;;;;;;6.43;2.08;;;38.90;13.60;;;;;;4988234;28;20024;-65
2022/06/21 01:24:13;;;;;;;6.72;3.03;;;38.80;13.30;;;;;;4988977;28;20035;-65
2022/06/21 01:27:01;;;;;;;10.35;4.30;;;38.60;13.60;;;;;;5006023;28;20074;-71
2022/06/21 01:29:31;;;;;;;8.20;2.30;;;38.50;13.50;;;;;;4992460;28;21346;-68
2022/06/21 01:32:04;;;;;;;11.23;2.75;;;38.50;13.40;;;;;;4996333;28;20026;-65
2022/06/21 01:34:30;;;;;;;13.52;2.58;;;38.40;13.90;;;;;;4990635;28;20471;-64
2022/06/21 01:37:03;;;;;;;18.83;3.35;;;38.30;13.90;;;;;;4990169;28;20039;-63
2022/06/21 01:39:43;;;;;;;7.32;2.10;;;38.20;13.90;;;;;;4989283;28;20027;-64
2022/06/21 01:42:19;;;;;;;11.90;2.15;;;38.10;14.20;;;;;;5006094;28;20504;-62
2022/06/21 01:44:51;;;;;;;8.77;1.80;;;38.00;14.00;;;;;;4990390;28;20044;-63
2022/06/21 01:47:28;;;;;;;10.60;2.08;;;38.00;14.30;;;;;;5005515;28;20079;-63
2022/06/21 01:50:03;;;;;;;11.48;1.77;;;37.90;13.90;;;;;;4992423;28;20030;-63
2022/06/21 01:52:34;;;;;;;11.05;1.90;;;37.80;14.20;;;;;;4990497;28;20040;-63
2022/06/21 01:55:08;;;;;;;8.20;1.75;;;37.70;14.30;;;;;;4993377;28;20470;-64
2022/06/21 01:57:36;;;;;;;6.22;1.85;;;37.60;13.80;;;;;;5007109;28;20591;-64
2022/06/21 02:00:05;;;;;;;13.13;2.17;;;37.50;14.30;;;;;;4991840;28;20058;-66
2022/06/21 02:02:41;;;;;;;9.40;1.80;;;37.30;14.20;;;;;;4989365;28;20059;-64
2022/06/21 02:05:13;;;;;;;9.00;1.70;;;37.20;14.20;;;;;;4989810;28;20071;-66
2022/06/21 02:08:04;;;;;;;6.18;1.70;;;37.10;13.60;;;;;;4989054;28;20063;-64
2022/06/21 02:10:41;;;;;;;9.30;1.55;;;37.00;14.10;;;;;;4992366;28;20519;-63
2022/06/21 02:13:17;;;;;;;9.85;1.80;;;36.90;13.90;;;;;;4992304;28;20501;-63
2022/06/21 02:16:11;;;;;;;9.70;1.88;;;36.80;13.90;;;;;;4997230;28;20482;-63
2022/06/21 02:18:43;;;;;;;12.57;2.20;;;36.70;14.30;;;;;;4988564;28;20117;-63
2022/06/21 02:21:32;;;;;;;6.25;1.95;;;36.60;14.50;;;;;;4988809;28;20133;-63
2022/06/21 02:23:59;;;;;;;12.75;1.88;;;36.50;14.10;;;;;;4987420;28;20050;-65
2022/06/21 02:26:29;;;;;;;11.27;1.52;;;36.50;14.30;;;;;;4988385;28;20123;-63
2022/06/21 02:28:56;;;;;;;12.55;1.70;;;36.30;14.30;;;;;;5003840;28;20082;-61
2022/06/21 02:31:27;;;;;;;9.23;1.55;;;36.20;14.50;;;;;;5005487;28;20046;-63
2022/06/21 02:33:56;;;;;;;4.20;1.80;;;36.10;14.80;;;;;;4974847;28;20067;-63
2022/06/21 02:36:28;;;;;;;15.77;2.40;;;36.00;14.40;;;;;;4975719;28;20050;-63
2022/06/21 02:38:58;;;;;;;17.48;2.80;;;35.90;14.70;;;;;;4973747;28;20145;-65
2022/06/21 02:41:45;;;;;;;11.25;2.30;;;35.80;15.10;;;;;;4973204;28;20463;-63
2022/06/21 02:44:26;;;;;;;6.85;1.80;;;35.60;14.80;;;;;;4989601;28;20115;-64
2022/06/21 02:46:57;;;;;;;7.60;1.83;;;35.50;15.30;;;;;;4989419;28;20048;-64
2022/06/21 02:49:34;;;;;;;7.40;1.80;;;35.40;15.00;;;;;;4972759;28;20098;-66
2022/06/21 02:52:13;;;;;;;14.48;1.85;;;35.20;15.40;;;;;;4986942;28;20196;-64
2022/06/21 02:54:48;;;;;;;9.80;2.10;;;35.20;15.50;;;;;;4991714;28;20505;-63
2022/06/21 02:57:22;;;;;;;14.88;1.90;;;35.00;15.80;;;;;;4992471;28;20416;-63
2022/06/21 02:59:51;;;;;;;9.60;1.90;;;34.90;15.50;;;;;;4996579;28;20139;-65
2022/06/21 03:02:23;;;;;;;13.27;2.42;;;34.80;15.60;;;;;;4992618;28;20074;-63
2022/06/21 03:04:54;;;;;;;9.75;2.13;;;34.70;15.40;;;;;;4990135;28;20419;-64
2022/06/21 03:07:24;;;;;;;10.38;2.22;;;34.60;15.80;;;;;;4988859;28;20056;-63
2022/06/21 03:09:52;;;;;;;9.90;2.42;;;34.40;15.30;;;;;;4991310;28;20082;-64
2022/06/21 03:12:22;;;;;;;11.32;2.00;;;34.40;15.90;;;;;;4991337;28;20060;-64
2022/06/21 03:14:51;;;;;;;14.80;2.33;;;34.30;15.90;;;;;;4989110;28;20046;-62
2022/06/21 03:17:23;;;;;;;16.38;2.05;;;34.20;16.60;;;;;;4988300;28;20514;-64
2022/06/21 03:19:53;;;;;;;16.27;2.35;;;34.10;16.90;;;;;;4971958;28;20056;-64
2022/06/21 03:22:23;;;;;;;20.17;3.03;;;34.00;17.20;;;;;;4988043;28;20071;-64
2022/06/21 03:24:54;;;;;;;15.82;2.25;;;33.80;16.90;;;;;;4995068;28;20061;-63
2022/06/21 03:27:31;;;;;;;14.82;2.53;;;33.80;17.00;;;;;;4987056;28;20512;-63
2022/06/21 03:29:59;;;;;;;57.50;4.55;;;33.70;17.00;;;;;;4990147;28;20583;-64
2022/06/21 03:32:29;;;;;;;42.22;4.38;;;33.70;16.80;;;;;;4988534;28;20089;-63
2022/06/21 03:34:55;;;;;;;26.80;3.55;;;33.60;16.70;;;;;;4990289;28;20075;-63
2022/06/21 03:37:22;;;;;;;44.22;5.43;;;33.60;17.10;;;;;;4992145;28;20061;-63
2022/06/21 03:42:41;;;;;;;35.78;4.50;;;33.30;18.30;;;;;;4988343;28;20105;-64
2022/06/21 03:45:27;;;;;;;46.50;5.13;;;33.30;19.40;;;;;;4987624;28;20406;-64
2022/06/21 03:48:17;;;;;;;51.07;4.93;;;33.10;19.30;;;;;;4987240;28;20060;-63
2022/06/21 03:50:53;;;;;;;34.03;4.28;;;33.10;19.60;;;;;;4985596;28;20112;-64
2022/06/21 03:53:42;;;;;;;37.13;4.32;;;33.00;19.50;;;;;;4978242;28;20488;-63
2022/06/21 03:56:24;;;;;;;38.85;4.13;;;32.90;19.80;;;;;;4994277;28;20110;-65
2022/06/21 03:58:56;;;;;;;43.88;4.03;;;32.80;19.50;;;;;;4998275;28;20407;-65
2022/06/21 04:01:38;;;;;;;29.27;4.47;;;32.70;19.20;;;;;;4996134;28;20416;-64
2022/06/21 04:04:17;;;;;;;48.65;6.22;;;32.60;19.80;;;;;;4975330;28;20072;-67
2022/06/21 04:06:52;;;;;;;32.08;5.82;;;32.50;20.10;;;;;;4991264;28;20439;-63
2022/06/21 04:09:28;;;;;;;37.17;5.15;;;32.40;19.70;;;;;;4999989;28;20139;-63
2022/06/21 04:12:17;;;;;;;78.78;10.32;;;32.40;20.50;;;;;;4990256;28;20071;-63
2022/06/21 04:15:02;;;;;;;92.45;8.75;;;32.30;20.00;;;;;;4993216;28;20073;-63
2022/06/21 04:17:35;;;;;;;47.33;7.00;;;32.20;20.40;;;;;;4994354;28;20087;-63
2022/06/21 04:20:06;;;;;;;35.05;5.05;;;32.20;20.10;;;;;;4993919;28;20061;-63
2022/06/21 04:23:13;;;;;;;40.53;5.43;;;32.10;19.90;;;;;;4992850;28;20061;-64
2022/06/21 04:25:51;;;;;;;45.75;5.32;;;32.00;20.70;;;;;;4921767;29;20093;-63
2022/06/21 04:28:23;;;;;;;41.80;6.35;;;32.00;20.20;;;;;;4921335;29;20067;-64
2022/06/21 04:30:58;;;;;;;51.83;5.72;;;31.90;20.10;;;;;;4925097;29;20116;-64
2022/06/21 04:33:52;;;;;;;45.30;5.68;;;31.90;20.40;;;;;;4937829;29;20088;-64
2022/06/21 04:36:35;;;;;;;33.22;4.68;;;31.90;20.50;;;;;;4933180;29;20133;-63
2022/06/21 04:39:28;;;;;;;27.80;5.03;;;31.70;20.60;;;;;;4948478;29;20091;-63
2022/06/21 04:42:03;;;;;;;35.63;4.88;;;31.70;20.30;;;;;;4919905;29;20076;-66
2022/06/21 04:44:38;;;;;;;36.17;5.40;;;31.60;21.30;;;;;;4923218;29;20063;-63
2022/06/21 04:47:20;;;;;;;34.50;5.35;;;31.50;21.80;;;;;;4927497;29;20074;-64
2022/06/21 04:50:15;;;;;;;42.22;5.38;;;31.40;20.30;;;;;;4946776;29;20074;-64
2022/06/21 04:52:51;;;;;;;35.63;5.70;;;31.40;20.50;;;;;;4920113;29;20081;-64
2022/06/21 04:55:21;;;;;;;30.50;5.38;;;31.40;20.60;;;;;;4931329;28;20077;-63
2022/06/21 04:57:48;;;;;;;41.35;5.50;;;31.30;20.70;;;;;;4922975;29;20086;-63
2022/06/21 05:00:19;;;;;;;46.10;6.38;;;31.30;21.60;;;;;;4925555;29;20588;-65
2022/06/21 05:02:51;;;;;;;57.10;8.80;;;31.10;23.20;;;;;;4977622;28;20127;-65
2022/06/21 05:05:33;;;;;;;40.20;7.78;;;31.10;21.70;;;;;;4989899;28;20067;-68
2022/06/21 05:08:19;;;;;;;60.88;10.15;;;31.10;21.20;;;;;;4999104;28;20068;-67
2022/06/21 05:10:50;;;;;;;68.22;9.40;;;31.00;21.90;;;;;;4992695;28;20449;-62
2022/06/21 05:13:26;;;;;;;59.05;9.10;;;31.00;22.40;;;;;;4990401;28;20457;-64
2022/06/21 05:15:55;;;;;;;64.45;8.88;;;30.90;21.60;;;;;;5006235;28;20093;-63
2022/06/21 05:18:35;;;;;;;47.95;7.70;;;30.90;22.20;;;;;;4990601;28;20091;-63
2022/06/21 05:21:15;;;;;;;50.63;7.20;;;30.80;22.40;;;;;;4977332;28;20062;-62
2022/06/21 05:23:42;;;;;;;55.22;9.02;;;30.80;21.90;;;;;;4990684;28;20192;-64
2022/06/21 05:26:18;;;;;;;65.63;8.93;;;30.70;22.70;;;;;;5008381;28;20119;-63
2022/06/21 05:29:08;;;;;;;54.42;8.63;;;30.60;23.20;;;;;;4990134;28;20527;-63
2022/06/21 05:31:43;;;;;;;145.30;51.40;;;30.60;23.00;;;;;;5005360;28;20111;-63
2022/06/21 05:34:23;;;;;;;61.13;11.85;;;30.60;24.10;;;;;;4990865;28;20477;-64
2022/06/21 05:37:13;;;;;;;73.15;11.80;;;30.50;22.50;;;;;;4991835;28;20531;-65
2022/06/21 05:39:49;;;;;;;142.77;44.10;;;30.50;21.80;;;;;;4990048;28;20449;-62
2022/06/21 05:42:18;;;;;;;73.88;16.00;;;30.40;22.20;;;;;;4989954;28;20147;-66
2022/06/21 05:44:48;;;;;;;117.85;40.30;;;30.50;22.40;;;;;;4997739;28;20436;-64
2022/06/21 05:47:53;;;;;;;134.75;45.85;;;30.40;23.00;;;;;;4989759;28;20132;-64
2022/06/21 05:50:28;;;;;;;103.05;36.33;;;30.30;22.90;;;;;;4968952;28;20080;-63
2022/06/21 05:53:00;;;;;;;90.18;35.38;;;30.30;23.90;;;;;;4952128;28;20102;-63
2022/06/21 05:55:33;;;;;;;109.15;48.53;;;30.30;24.50;;;;;;4969443;28;20198;-63
2022/06/21 05:58:16;;;;;;;95.68;33.55;;;30.30;24.00;;;;;;4953990;28;20181;-63
2022/06/21 06:01:18;;;;;;;68.00;19.27;;;30.20;24.30;;;;;;4967638;28;20096;-63
2022/06/21 06:03:47;;;;;;;70.35;18.33;;;30.10;23.70;;;;;;4958349;28;20075;-63
2022/06/21 06:06:18;;;;;;;71.85;18.55;;;30.10;23.60;;;;;;4952500;28;20078;-62
2022/06/21 06:08:49;;;;;;;61.03;17.83;;;30.10;23.30;;;;;;4971033;28;20108;-61
2022/06/21 06:11:57;;;;;;;74.05;20.60;;;30.00;23.00;;;;;;4970337;28;20079;-63
2022/06/21 06:14:20;;;;;;;77.68;20.10;;;30.00;23.90;;;;;;4968632;28;20522;-64
2022/06/21 06:16:49;;;;;;;89.50;22.52;;;29.90;23.50;;;;;;4952540;28;20170;-63
2022/06/21 06:19:28;;;;;;;77.53;19.50;;;29.90;25.80;;;;;;4952550;28;20112;-62
2022/06/21 06:22:06;;;;;;;66.70;15.25;;;29.90;24.20;;;;;;4966174;28;20128;-62
2022/06/21 06:24:50;;;;;;;61.90;15.52;;;29.80;23.10;;;;;;4952798;28;20076;-62
2022/06/21 06:27:45;;;;;;;63.00;14.82;;;29.80;22.90;;;;;;4961977;28;20163;-64
2022/06/21 06:30:18;;;;;;;56.22;15.52;;;29.80;23.90;;;;;;4986593;28;20555;-61
2022/06/21 06:32:55;;;;;;;51.47;13.30;;;29.80;23.40;;;;;;4988467;28;20127;-63
2022/06/21 06:35:25;;;;;;;54.25;15.18;;;29.80;23.00;;;;;;4995437;28;20542;-63
2022/06/21 06:37:52;;;;;;;52.92;13.85;;;29.70;24.40;;;;;;4995520;28;20091;-61
2022/06/21 06:40:37;;;;;;;57.45;13.13;;;29.60;24.50;;;;;;4974334;28;20170;-62
2022/06/21 06:43:20;;;;;;;62.15;13.32;;;29.60;24.10;;;;;;4989362;28;20080;-62
2022/06/21 06:45:49;;;;;;;44.90;12.57;;;29.60;24.20;;;;;;4988454;28;20083;-63
2022/06/21 06:48:28;;;;;;;55.78;12.93;;;29.60;24.90;;;;;;4988203;28;20507;-63
2022/06/21 06:51:26;;;;;;;41.75;10.20;;;29.60;25.10;;;;;;4989667;28;20442;-63
2022/06/21 06:53:54;;;;;;;59.80;10.80;;;29.50;24.40;;;;;;4985374;28;20142;-63
2022/06/21 06:56:31;;;;;;;53.45;10.70;;;29.50;24.10;;;;;;4991852;28;20180;-62
2022/06/21 06:59:06;;;;;;;47.95;10.40;;;29.40;24.10;;;;;;4973406;28;20095;-63
2022/06/21 07:01:41;;;;;;;45.40;10.55;;;29.40;23.90;;;;;;4988581;28;20095;-62
2022/06/21 07:04:13;;;;;;;52.60;9.63;;;29.40;23.80;;;;;;4988105;28;20078;-63
2022/06/21 07:06:54;;;;;;;48.97;10.73;;;29.30;25.60;;;;;;4980714;28;20168;-61
2022/06/21 07:09:36;;;;;;;50.28;10.10;;;29.30;26.20;;;;;;4995387;28;20126;-63
2022/06/21 07:12:02;;;;;;;47.83;10.13;;;29.20;25.70;;;;;;4976502;28;20172;-64
2022/06/21 07:14:29;;;;;;;42.05;11.32;;;29.20;25.60;;;;;;4990286;28;20150;-63
2022/06/21 07:17:16;;;;;;;43.30;10.40;;;29.20;25.40;;;;;;4989225;28;20090;-62
2022/06/21 07:19:43;;;;;;;51.95;9.65;;;29.10;24.60;;;;;;4988650;28;20080;-64
2022/06/21 07:22:34;;;;;;;42.05;10.05;;;29.10;24.30;;;;;;4987809;28;20067;-63
2022/06/21 07:25:31;;;;;;;46.33;9.93;;;29.00;24.30;;;;;;4986795;28;20076;-62
2022/06/21 07:28:08;;;;;;;46.35;9.35;;;29.00;24.50;;;;;;5010229;28;20082;-63
2022/06/21 07:30:41;;;;;;;51.53;9.65;;;29.00;24.20;;;;;;4989557;28;20178;-64
2022/06/21 07:33:33;;;;;;;46.75;8.50;;;29.00;24.00;;;;;;4975218;28;20529;-65
2022/06/21 07:36:18;;;;;;;45.30;9.00;;;28.90;24.50;;;;;;4987649;28;20078;-62
2022/06/21 07:38:55;;;;;;;48.40;9.50;;;28.80;25.40;;;;;;4990177;28;20107;-62
2022/06/21 07:41:31;;;;;;;49.28;9.65;;;28.80;25.10;;;;;;4988573;28;20178;-62
2022/06/21 07:44:36;;;;;;;49.13;9.80;;;28.70;24.90;;;;;;4991534;28;20062;-65
2022/06/21 07:47:10;;;;;;;44.58;8.38;;;28.70;25.20;;;;;;4994078;28;20096;-64
2022/06/21 07:49:45;;;;;;;53.55;10.27;;;28.60;24.60;;;;;;4997597;28;20606;-62
2022/06/21 07:52:34;;;;;;;52.45;10.35;;;28.60;25.40;;;;;;4976825;28;20095;-63
2022/06/21 07:55:10;;;;;;;52.53;10.63;;;28.60;24.70;;;;;;4991738;28;20137;-65
2022/06/21 07:57:44;;;;;;;48.47;11.02;;;28.50;25.60;;;;;;4958410;28;20088;-65
2022/06/21 08:00:16;;;;;;;51.53;11.20;;;28.50;25.00;;;;;;4981214;28;20526;-63
2022/06/21 08:08:35;;;;;;;61.25;12.57;;;28.40;26.20;;;;;;4987633;28;20232;-63
2022/06/21 08:11:14;;;;;;;62.55;13.57;;;28.30;25.40;;;;;;4990714;28;20114;-64
2022/06/21 08:13:40;;;;;;;53.50;12.63;;;28.30;25.40;;;;;;4989290;28;20564;-65
2022/06/21 08:16:14;;;;;;;60.00;14.65;;;28.30;26.30;;;;;;4988690;28;20520;-63
2022/06/21 08:19:01;;;;;;;66.35;15.35;;;28.20;26.10;;;;;;4994416;28;20140;-64
2022/06/21 08:21:38;;;;;;;65.57;14.10;;;28.10;25.80;;;;;;4990519;28;20176;-62
2022/06/21 08:24:12;;;;;;;86.35;14.27;;;28.10;26.90;;;;;;4988890;28;20105;-63
2022/06/21 08:26:42;;;;;;;70.25;15.18;;;28.00;27.10;;;;;;4987852;28;20109;-63
2022/06/21 08:29:22;;;;;;;77.60;15.95;;;28.00;27.00;;;;;;4987172;28;20085;-62
2022/06/21 08:32:07;;;;;;;75.40;15.15;;;28.00;27.30;;;;;;4984993;28;20077;-62
2022/06/21 08:34:52;;;;;;;70.55;15.55;;;27.90;26.90;;;;;;4983972;28;20131;-62
2022/06/21 08:37:42;;;;;;;103.60;17.38;;;28.00;26.80;;;;;;4988474;28;21338;-65
2022/06/21 08:40:40;;;;;;;78.00;16.42;;;27.90;26.90;;;;;;4989792;28;20088;-62
2022/06/21 08:43:20;;;;;;;74.75;16.15;;;27.90;26.70;;;;;;4991395;28;20531;-65
2022/06/21 08:46:25;;;;;;;90.97;17.00;;;27.90;26.80;;;;;;4991123;28;20097;-64
2022/06/21 08:49:27;;;;;;;73.82;17.10;;;27.80;26.70;;;;;;4954299;28;20092;-62
2022/06/21 08:52:06;;;;;;;68.22;16.67;;;27.80;27.00;;;;;;4954797;28;20141;-63
2022/06/21 08:55:02;;;;;;;106.03;18.20;;;27.80;27.00;;;;;;4969314;28;20512;-60
2022/06/21 08:57:53;;;;;;;92.35;19.23;;;27.70;28.10;;;;;;4953166;28;20080;-62
2022/06/21 09:00:22;;;;;;;91.95;19.40;;;27.70;27.70;;;;;;4955033;28;20082;-63
2022/06/21 09:03:07;;;;;;;78.97;18.83;;;27.70;27.80;;;;;;4976565;28;20486;-65
2022/06/21 09:05:37;;;;;;;96.18;19.05;;;27.70;27.30;;;;;;4974888;28;20078;-62
2022/06/21 09:08:19;;;;;;;89.60;18.17;;;27.60;27.30;;;;;;4952656;28;20663;-62
2022/06/21 09:11:08;;;;;;;88.80;20.05;;;27.60;28.20;;;;;;4972975;28;20152;-63
2022/06/21 09:13:46;;;;;;;102.07;19.27;;;27.60;28.40;;;;;;4970156;28;20082;-62
2022/06/21 09:16:19;;;;;;;101.30;19.85;;;27.60;27.80;;;;;;4954686;28;20082;-64
2022/06/21 09:18:57;;;;;;;93.32;18.05;;;27.60;27.40;;;;;;4955841;28;20505;-62
2022/06/21 09:21:33;;;;;;;91.60;17.60;;;27.60;27.60;;;;;;5005431;28;20073;-62
2022/06/21 09:24:06;;;;;;;101.10;20.40;;;27.50;27.70;;;;;;5007300;28;20100;-62
2022/06/21 09:26:37;;;;;;;104.78;18.90;;;27.40;28.80;;;;;;4996896;28;20104;-64
2022/06/21 09:29:26;;;;;;;99.57;19.13;;;27.40;28.30;;;;;;4993170;28;20479;-63
2022/06/21 09:31:52;;;;;;;82.07;17.23;;;27.40;29.50;;;;;;4988152;28;20096;-63
2022/06/21 09:34:48;;;;;;;91.10;18.90;;;27.30;28.70;;;;;;4988553;28;20094;-63
2022/06/21 09:37:36;;;;;;;97.97;20.25;;;27.30;28.80;;;;;;4975161;28;20078;-65
2022/06/21 09:40:17;;;;;;;100.53;21.58;;;27.30;28.20;;;;;;4990433;28;20741;-65
2022/06/21 09:43:11;;;;;;;89.30;22.00;;;27.30;28.10;;;;;;4999484;28;20164;-62
2022/06/21 09:45:58;;;;;;;101.90;20.92;;;27.20;27.70;;;;;;4977188;28;20078;-63
2022/06/21 09:48:29;;;;;;;91.10;21.02;;;27.20;27.40;;;;;;4992470;28;20065;-63
2022/06/21 09:51:05;;;;;;;104.00;21.55;;;27.20;27.40;;;;;;4973030;28;20173;-63
2022/06/21 09:53:59;;;;;;;96.90;20.65;;;27.10;28.00;;;;;;5004651;28;20204;-62
2022/06/21 09:56:37;;;;;;;100.95;20.38;;;27.10;28.30;;;;;;4992942;28;20115;-62
2022/06/21 09:59:17;;;;;;;105.68;20.85;;;27.10;28.00;;;;;;5000215;28;20123;-63
2022/06/21 10:01:50;;;;;;;94.85;22.23;;;27.00;27.70;;;;;;5002192;28;20087;-62
2022/06/21 10:04:28;;;;;;;85.85;21.50;;;27.00;27.60;;;;;;4992158;28;20069;-63
2022/06/21 10:07:19;;;;;;;96.05;21.67;;;27.00;28.10;;;;;;4989385;28;20081;-63
2022/06/21 10:10:03;;;;;;;88.45;21.00;;;26.90;28.10;;;;;;4993233;28;20113;-63
2022/06/21 10:13:16;;;;;;;96.10;22.17;;;26.90;27.80;;;;;;4993352;28;20074;-65
2022/06/21 10:16:03;;;;;;;92.05;22.38;;;26.90;27.80;;;;;;4988921;28;20620;-62
2022/06/21 10:18:36;;;;;;;93.55;21.58;;;26.90;27.90;;;;;;4989765;28;20140;-62
2022/06/21 10:21:11;;;;;;;88.65;22.23;;;26.90;27.40;;;;;;4989509;28;20081;-65
2022/06/21 10:23:50;;;;;;;96.75;22.13;;;26.80;28.10;;;;;;4989886;28;20089;-63
2022/06/21 10:26:39;;;;;;;86.07;20.83;;;26.80;28.60;;;;;;4991201;28;20105;-63
2022/06/21 10:29:33;;;;;;;100.03;21.45;;;26.70;29.90;;;;;;4990337;28;20104;-63
2022/06/21 10:32:12;;;;;;;95.65;21.55;;;26.60;29.10;;;;;;4987359;28;20164;-62
2022/06/21 10:35:06;;;;;;;92.13;21.42;;;26.60;28.70;;;;;;4990009;28;20096;-62
2022/06/21 10:37:57;;;;;;;103.22;22.17;;;26.60;28.50;;;;;;4988883;28;20074;-64
2022/06/21 10:40:33;;;;;;;89.30;21.17;;;26.60;28.30;;;;;;4989412;28;20144;-66
2022/06/21 10:43:31;;;;;;;88.70;20.95;;;26.60;29.60;;;;;;4989218;28;20073;-64
2022/06/21 10:46:22;;;;;;;99.32;22.75;;;26.40;30.00;;;;;;5005725;28;20091;-63
2022/06/21 10:49:10;;;;;;;101.60;22.67;;;26.40;29.40;;;;;;4990218;28;20086;-63
2022/06/21 10:51:57;;;;;;;105.35;25.00;;;26.50;28.90;;;;;;5001599;28;20093;-62
2022/06/21 10:54:30;;;;;;;105.78;25.75;;;26.50;28.80;;;;;;4991369;28;20618;-63
2022/06/21 10:57:14;;;;;;;98.80;25.77;;;26.50;28.00;;;;;;4996575;28;20078;-64
2022/06/21 11:03:02;;;;;;;75.65;17.83;;;26.40;29.50;;;;;;4988971;28;20069;-62
2022/06/21 11:06:05;;;;;;;64.85;15.27;;;26.40;32.20;;;;;;4987393;28;20444;-61
2022/06/21 11:08:59;;;;;;;47.67;13.65;;;26.40;34.40;;;;;;4989043;28;20084;-63
2022/06/21 11:11:28;;;;;;;39.92;11.15;;;26.50;38.10;;;;;;4992257;28;20077;-65
2022/06/21 11:14:15;;;;;;;36.80;10.05;;;26.40;42.80;;;;;;4996266;28;20089;-63
2022/06/21 11:16:55;;;;;;;37.00;9.55;;;26.40;45.40;;;;;;4991418;28;20077;-62
2022/06/21 11:19:46;;;;;;;33.17;8.23;;;26.40;48.30;;;;;;4987118;28;20217;-64
2022/06/21 11:22:49;;;;;;;34.58;7.13;;;26.30;51.10;;;;;;4988340;28;20440;-63
2022/06/21 11:25:37;;;;;;;19.33;6.25;;;26.30;53.20;;;;;;4990023;28;20097;-63
2022/06/21 11:28:29;;;;;;;38.40;6.53;;;26.30;53.60;;;;;;4988887;28;20093;-63
2022/06/21 11:31:09;;;;;;;30.05;7.20;;;26.30;53.00;;;;;;4988031;28;20078;-63
2022/06/21 11:34:07;;;;;;;26.17;6.10;;;26.20;52.70;;;;;;4987352;28;20085;-63
2022/06/21 11:36:53;;;;;;;28.17;6.18;;;26.10;52.40;;;;;;4992054;28;20077;-64
2022/06/21 11:39:45;;;;;;;34.00;6.93;;;26.10;52.20;;;;;;4976205;28;20100;-63
2022/06/21 11:42:31;;;;;;;41.10;7.40;;;26.10;51.90;;;;;;4989236;28;20069;-62
2022/06/21 11:45:35;;;;;;;25.90;6.18;;;26.00;51.60;;;;;;4988661;28;20203;-63
2022/06/21 11:48:21;;;;;;;41.72;8.02;;;26.00;52.20;;;;;;4990644;28;20104;-62
2022/06/21 11:51:11;;;;;;;30.25;7.40;;;26.00;52.00;;;;;;4993618;28;20073;-64
2022/06/21 11:53:56;;;;;;;32.97;7.07;;;25.90;52.40;;;;;;4997158;28;20099;-65
2022/06/21 11:56:23;;;;;;;28.08;7.32;;;25.90;53.30;;;;;;5003228;28;20084;-63
2022/06/21 11:59:19;;;;;;;35.25;7.30;;;25.90;54.80;;;;;;4989551;28;20449;-66
2022/06/21 12:02:13;;;;;;;26.48;6.13;;;25.90;55.50;;;;;;4990724;28;20076;-63
2022/06/21 12:05:03;;;;;;;28.52;6.72;;;25.80;56.30;;;;;;5001662;28;20523;-63
2022/06/21 12:08:29;;;;;;;37.85;7.53;;;25.70;57.00;;;;;;4988891;28;20165;-63
2022/06/21 12:10:58;;;;;;;32.28;7.93;;;25.70;57.90;;;;;;4949915;28;20145;-64
2022/06/21 12:13:36;;;;;;;29.15;7.85;;;25.70;58.60;;;;;;4953102;28;20097;-63
2022/06/21 12:16:21;;;;;;;37.22;7.78;;;25.60;59.30;;;;;;4961251;28;20090;-63
2022/06/21 12:19:13;;;;;;;29.88;7.72;;;25.70;59.70;;;;;;4954702;28;20090;-65
2022/06/21 12:21:48;;;;;;;29.23;7.13;;;25.70;60.30;;;;;;4955821;28;20090;-63
2022/06/21 12:24:20;;;;;;;25.67;7.70;;;25.70;60.70;;;;;;4953357;28;20096;-64
2022/06/21 12:26:47;;;;;;;30.58;7.88;;;25.70;62.20;;;;;;4940257;28;20513;-63
2022/06/21 12:29:17;;;;;;;24.20;6.32;;;25.60;64.50;;;;;;4955782;28;20197;-65
2022/06/21 12:31:50;;;;;;;29.27;6.53;;;25.60;66.40;;;;;;4939892;28;20224;-65
2022/06/21 12:34:43;;;;;;;26.67;5.47;;;25.70;66.70;;;;;;4944730;28;20173;-63
2022/06/21 12:37:25;;;;;;;28.50;6.03;;;25.70;66.90;;;;;;4956664;28;20414;-63
2022/06/21 12:40:02;;;;;;;34.20;6.47;;;25.70;67.00;;;;;;4952156;28;20502;-64
2022/06/21 12:42:35;;;;;;;;;;;25.80;67.30;;;;;;4991225;28;20077;-62
2022/06/21 12:45:23;;;;;;;30.52;5.65;;;25.70;67.50;;;;;;4974671;28;20347;-65
2022/06/21 12:48:26;;;;;;;27.50;6.63;;;25.60;65.50;;;;;;4991461;28;20070;-63
2022/06/21 12:51:04;;;;;;;26.98;6.43;;;25.50;62.70;;;;;;4989990;28;20076;-65
2022/06/21 12:53:48;;;;;;;23.40;4.90;;;25.50;62.00;;;;;;4990717;28;20074;-63
2022/06/21 12:56:26;;;;;;;33.53;5.75;;;25.60;60.60;;;;;;4994955;28;20104;-62
2022/06/21 12:59:19;;;;;;;31.40;6.70;;;25.60;59.60;;;;;;4993705;28;20104;-62
2022/06/21 13:02:12;;;;;;;36.45;6.53;;;25.70;58.90;;;;;;4993104;28;20078;-63
2022/06/21 13:04:51;;;;;;;28.58;5.38;;;25.70;59.00;;;;;;4991051;28;20076;-64
2022/06/21 13:07:45;;;;;;;28.35;5.50;;;25.70;58.80;;;;;;4997505;28;20524;-62
2022/06/21 13:10:20;;;;;;;28.13;6.03;;;25.70;58.20;;;;;;4991522;28;20073;-63
2022/06/21 13:13:12;;;;;;;32.25;6.45;;;25.80;57.90;;;;;;4991250;28;20642;-64
2022/06/21 13:16:02;;;;;;;34.63;7.72;;;25.80;58.20;;;;;;4990303;28;20089;-65
2022/06/21 13:19:12;;;;;;;39.35;7.80;;;25.80;58.70;;;;;;4996136;28;20096;-63
2022/06/21 13:21:51;;;;;;;33.67;8.07;;;25.80;55.70;;;;;;5005658;28;20089;-63
2022/06/21 13:24:33;;;;;;;35.55;7.15;;;25.70;55.90;;;;;;5003857;28;20073;-63
2022/06/21 13:27:15;;;;;;;36.42;7.63;;;25.70;56.90;;;;;;4990274;28;20297;-61
2022/06/21 13:30:09;;;;;;;35.97;7.68;;;25.70;55.50;;;;;;4991723;28;20557;-63
2022/06/21 13:32:49;;;;;;;51.97;8.52;;;25.70;55.00;;;;;;4994391;28;20097;-62
2022/06/21 13:36:00;;;;;;;39.80;6.68;;;25.80;54.60;;;;;;4986756;28;20128;-63
2022/06/21 13:38:52;;;;;;;53.45;7.72;;;25.90;54.20;;;;;;4969397;28;20102;-63
2022/06/21 13:44:19;;;;;;;45.58;7.15;;;25.90;55.10;;;;;;4969274;28;20190;-62
2022/06/21 13:46:55;;;;;;;36.42;7.03;;;25.90;55.10;;;;;;4953805;28;20077;-63
2022/06/21 13:49:32;;;;;;;41.75;7.13;;;26.00;55.90;;;;;;4952447;28;20113;-63
2022/06/21 13:52:19;;;;;;;26.67;4.60;;;26.20;56.50;;;;;;4953819;28;20082;-65